sensor_id;sensor_type;location;lat;lon;timestamp;P1;durP1;ratioP1;P2;durP2;ratioP2
59486;SDS011;45298;54.918;73.504;2023-03-14T00:00:05;19.23;;;5.22;;
59486;SDS011;45298;54.918;73.504;2023-03-14T00:02:36;15.13;;;5.40;;
59486;SDS011;45298;54.918;73.504;2023-03-14T00:05:08;23.40;;;7.57;;
59486;SDS011;45298;54.918;73.504;2023-03-14T00:07:56;14.40;;;5.18;;
59486;SDS011;45298;54.918;73.504;2023-03-14T00:10:43;13.85;;;5.25;;
59486;SDS011;45298;54.918;73.504;2023-03-14T00:13:30;8.93;;;4.03;;
59486;SDS011;45298;54.918;73.504;2023-03-14T00:16:17;17.55;;;5.50;;
59486;SDS011;45298;54.918;73.504;2023-03-14T00:19:05;14.27;;;4.80;;
59486;SDS011;45298;54.918;73.504;2023-03-14T00:21:53;11.00;;;4.60;;
59486;SDS011;45298;54.918;73.504;2023-03-14T00:24:40;13.35;;;4.95;;
59486;SDS011;45298;54.918;73.504;2023-03-14T00:27:27;12.43;;;4.80;;
59486;SDS011;45298;54.918;73.504;2023-03-14T00:30:14;13.43;;;5.05;;
59486;SDS011;45298;54.918;73.504;2023-03-14T00:33:02;11.85;;;4.45;;
59486;SDS011;45298;54.918;73.504;2023-03-14T00:35:53;14.18;;;5.45;;
59486;SDS011;45298;54.918;73.504;2023-03-14T00:38:47;13.65;;;5.45;;
59486;SDS011;45298;54.918;73.504;2023-03-14T00:41:36;11.38;;;5.07;;
59486;SDS011;45298;54.918;73.504;2023-03-14T00:44:23;14.25;;;4.97;;
59486;SDS011;45298;54.918;73.504;2023-03-14T00:47:11;10.70;;;4.28;;
59486;SDS011;45298;54.918;73.504;2023-03-14T00:50:00;13.82;;;5.00;;
59486;SDS011;45298;54.918;73.504;2023-03-14T00:52:47;15.73;;;4.78;;
59486;SDS011;45298;54.918;73.504;2023-03-14T00:55:17;10.88;;;4.15;;
59486;SDS011;45298;54.918;73.504;2023-03-14T00:57:45;13.48;;;4.88;;
59486;SDS011;45298;54.918;73.504;2023-03-14T01:00:14;14.52;;;4.82;;
59486;SDS011;45298;54.918;73.504;2023-03-14T01:02:43;10.93;;;4.50;;
59486;SDS011;45298;54.918;73.504;2023-03-14T01:05:12;11.68;;;4.40;;
59486;SDS011;45298;54.918;73.504;2023-03-14T01:07:41;13.07;;;4.90;;
59486;SDS011;45298;54.918;73.504;2023-03-14T01:10:10;11.13;;;4.05;;
59486;SDS011;45298;54.918;73.504;2023-03-14T01:12:39;10.55;;;4.35;;
59486;SDS011;45298;54.918;73.504;2023-03-14T01:15:08;11.63;;;4.68;;
59486;SDS011;45298;54.918;73.504;2023-03-14T01:17:37;13.30;;;4.40;;
59486;SDS011;45298;54.918;73.504;2023-03-14T01:20:25;12.27;;;4.53;;
59486;SDS011;45298;54.918;73.504;2023-03-14T01:23:14;12.35;;;5.03;;
59486;SDS011;45298;54.918;73.504;2023-03-14T01:26:01;9.45;;;4.07;;
59486;SDS011;45298;54.918;73.504;2023-03-14T01:28:49;14.73;;;4.50;;
59486;SDS011;45298;54.918;73.504;2023-03-14T01:31:41;12.27;;;4.55;;
59486;SDS011;45298;54.918;73.504;2023-03-14T01:34:10;13.93;;;4.60;;
59486;SDS011;45298;54.918;73.504;2023-03-14T01:36:39;12.48;;;4.80;;
59486;SDS011;45298;54.918;73.504;2023-03-14T01:39:08;15.63;;;4.57;;
59486;SDS011;45298;54.918;73.504;2023-03-14T01:41:37;11.18;;;4.38;;
59486;SDS011;45298;54.918;73.504;2023-03-14T01:44:11;14.95;;;5.18;;
59486;SDS011;45298;54.918;73.504;2023-03-14T01:46:44;13.52;;;4.68;;
59486;SDS011;45298;54.918;73.504;2023-03-14T01:52:15;17.40;;;5.30;;
59486;SDS011;45298;54.918;73.504;2023-03-14T01:54:52;13.82;;;5.50;;
59486;SDS011;45298;54.918;73.504;2023-03-14T01:57:35;16.92;;;6.10;;
59486;SDS011;45298;54.918;73.504;2023-03-14T02:00:11;15.27;;;5.13;;
59486;SDS011;45298;54.918;73.504;2023-03-14T02:02:44;11.38;;;4.60;;
59486;SDS011;45298;54.918;73.504;2023-03-14T02:05:21;13.68;;;5.28;;
59486;SDS011;45298;54.918;73.504;2023-03-14T02:07:58;14.15;;;5.03;;
59486;SDS011;45298;54.918;73.504;2023-03-14T02:10:37;13.30;;;4.75;;
59486;SDS011;45298;54.918;73.504;2023-03-14T02:13:10;11.30;;;4.25;;
59486;SDS011;45298;54.918;73.504;2023-03-14T02:15:48;15.82;;;5.57;;
59486;SDS011;45298;54.918;73.504;2023-03-14T02:18:37;11.38;;;4.38;;
59486;SDS011;45298;54.918;73.504;2023-03-14T02:25:08;9.15;;;4.20;;
59486;SDS011;45298;54.918;73.504;2023-03-14T02:27:44;11.88;;;4.68;;
59486;SDS011;45298;54.918;73.504;2023-03-14T02:30:16;10.32;;;4.28;;
59486;SDS011;45298;54.918;73.504;2023-03-14T02:32:51;9.88;;;4.93;;
59486;SDS011;45298;54.918;73.504;2023-03-14T02:37:56;12.13;;;4.45;;
59486;SDS011;45298;54.918;73.504;2023-03-14T02:40:38;11.68;;;4.30;;
59486;SDS011;45298;54.918;73.504;2023-03-14T02:43:06;7.70;;;3.83;;
59486;SDS011;45298;54.918;73.504;2023-03-14T02:45:44;11.15;;;4.20;;
59486;SDS011;45298;54.918;73.504;2023-03-14T02:48:29;7.50;;;3.15;;
59486;SDS011;45298;54.918;73.504;2023-03-14T02:51:02;9.15;;;3.80;;
59486;SDS011;45298;54.918;73.504;2023-03-14T02:53:32;9.57;;;3.95;;
59486;SDS011;45298;54.918;73.504;2023-03-14T02:56:07;7.72;;;3.70;;
59486;SDS011;45298;54.918;73.504;2023-03-14T02:58:37;8.73;;;3.88;;
59486;SDS011;45298;54.918;73.504;2023-03-14T03:01:18;10.77;;;3.83;;
59486;SDS011;45298;54.918;73.504;2023-03-14T03:03:48;9.18;;;3.70;;
59486;SDS011;45298;54.918;73.504;2023-03-14T03:06:19;9.70;;;3.95;;
59486;SDS011;45298;54.918;73.504;2023-03-14T03:08:48;6.78;;;3.20;;
59486;SDS011;45298;54.918;73.504;2023-03-14T03:11:17;8.02;;;3.70;;
59486;SDS011;45298;54.918;73.504;2023-03-14T03:13:45;10.18;;;3.53;;
59486;SDS011;45298;54.918;73.504;2023-03-14T03:16:14;9.45;;;3.95;;
59486;SDS011;45298;54.918;73.504;2023-03-14T03:18:43;9.07;;;3.50;;
59486;SDS011;45298;54.918;73.504;2023-03-14T03:21:11;8.18;;;3.90;;
59486;SDS011;45298;54.918;73.504;2023-03-14T03:23:43;7.70;;;3.70;;
59486;SDS011;45298;54.918;73.504;2023-03-14T03:26:11;8.73;;;3.78;;
59486;SDS011;45298;54.918;73.504;2023-03-14T03:28:40;8.25;;;3.55;;
59486;SDS011;45298;54.918;73.504;2023-03-14T03:31:10;8.57;;;3.50;;
59486;SDS011;45298;54.918;73.504;2023-03-14T03:33:40;8.07;;;3.83;;
59486;SDS011;45298;54.918;73.504;2023-03-14T03:36:09;6.50;;;3.30;;
59486;SDS011;45298;54.918;73.504;2023-03-14T03:38:39;7.78;;;3.58;;
59486;SDS011;45298;54.918;73.504;2023-03-14T03:41:08;8.50;;;3.88;;
59486;SDS011;45298;54.918;73.504;2023-03-14T03:43:37;7.55;;;3.60;;
59486;SDS011;45298;54.918;73.504;2023-03-14T03:46:08;7.70;;;3.67;;
59486;SDS011;45298;54.918;73.504;2023-03-14T03:48:38;8.18;;;3.42;;
59486;SDS011;45298;54.918;73.504;2023-03-14T03:51:07;6.10;;;3.03;;
59486;SDS011;45298;54.918;73.504;2023-03-14T03:53:39;6.68;;;3.00;;
59486;SDS011;45298;54.918;73.504;2023-03-14T03:56:11;8.00;;;3.38;;
59486;SDS011;45298;54.918;73.504;2023-03-14T03:58:41;8.02;;;3.40;;
59486;SDS011;45298;54.918;73.504;2023-03-14T04:01:12;6.97;;;3.40;;
59486;SDS011;45298;54.918;73.504;2023-03-14T04:03:45;8.73;;;3.55;;
59486;SDS011;45298;54.918;73.504;2023-03-14T04:06:14;10.73;;;3.70;;
59486;SDS011;45298;54.918;73.504;2023-03-14T04:08:45;5.80;;;2.88;;
59486;SDS011;45298;54.918;73.504;2023-03-14T04:11:37;6.72;;;3.05;;
59486;SDS011;45298;54.918;73.504;2023-03-14T04:14:25;6.78;;;3.60;;
59486;SDS011;45298;54.918;73.504;2023-03-14T04:17:02;7.72;;;3.20;;
59486;SDS011;45298;54.918;73.504;2023-03-14T04:19:30;6.22;;;2.65;;
59486;SDS011;45298;54.918;73.504;2023-03-14T04:21:59;8.20;;;3.58;;
59486;SDS011;45298;54.918;73.504;2023-03-14T04:24:34;7.13;;;3.22;;
59486;SDS011;45298;54.918;73.504;2023-03-14T04:27:03;9.13;;;3.40;;
59486;SDS011;45298;54.918;73.504;2023-03-14T04:29:33;7.75;;;3.65;;
59486;SDS011;45298;54.918;73.504;2023-03-14T04:32:02;7.93;;;3.42;;
59486;SDS011;45298;54.918;73.504;2023-03-14T04:34:32;7.18;;;2.92;;
59486;SDS011;45298;54.918;73.504;2023-03-14T04:37:00;6.20;;;3.20;;
59486;SDS011;45298;54.918;73.504;2023-03-14T04:39:35;7.45;;;3.40;;
59486;SDS011;45298;54.918;73.504;2023-03-14T04:42:14;7.32;;;3.80;;
59486;SDS011;45298;54.918;73.504;2023-03-14T04:44:43;10.70;;;4.00;;
59486;SDS011;45298;54.918;73.504;2023-03-14T04:47:12;6.72;;;3.15;;
59486;SDS011;45298;54.918;73.504;2023-03-14T04:49:42;8.52;;;3.67;;
59486;SDS011;45298;54.918;73.504;2023-03-14T04:52:13;10.23;;;3.88;;
59486;SDS011;45298;54.918;73.504;2023-03-14T04:54:42;8.55;;;3.95;;
59486;SDS011;45298;54.918;73.504;2023-03-14T04:57:11;9.15;;;4.07;;
59486;SDS011;45298;54.918;73.504;2023-03-14T04:59:40;8.07;;;3.75;;
59486;SDS011;45298;54.918;73.504;2023-03-14T05:02:41;7.05;;;3.42;;
59486;SDS011;45298;54.918;73.504;2023-03-14T05:05:18;7.68;;;3.90;;
59486;SDS011;45298;54.918;73.504;2023-03-14T05:08:05;10.52;;;4.18;;
59486;SDS011;45298;54.918;73.504;2023-03-14T05:11:09;10.15;;;4.60;;
59486;SDS011;45298;54.918;73.504;2023-03-14T05:14:01;13.43;;;4.40;;
59486;SDS011;45298;54.918;73.504;2023-03-14T05:16:33;7.85;;;4.30;;
59486;SDS011;45298;54.918;73.504;2023-03-14T05:19:20;12.32;;;4.05;;
59486;SDS011;45298;54.918;73.504;2023-03-14T05:22:18;9.27;;;4.05;;
59486;SDS011;45298;54.918;73.504;2023-03-14T05:25:06;10.10;;;4.10;;
59486;SDS011;45298;54.918;73.504;2023-03-14T05:27:46;8.80;;;3.78;;
59486;SDS011;45298;54.918;73.504;2023-03-14T05:30:24;8.63;;;3.60;;
59486;SDS011;45298;54.918;73.504;2023-03-14T05:33:05;7.00;;;3.80;;
59486;SDS011;45298;54.918;73.504;2023-03-14T05:36:03;7.75;;;4.03;;
59486;SDS011;45298;54.918;73.504;2023-03-14T05:38:52;8.23;;;3.50;;
59486;SDS011;45298;54.918;73.504;2023-03-14T05:41:47;6.63;;;3.60;;
59486;SDS011;45298;54.918;73.504;2023-03-14T05:44:41;9.93;;;3.97;;
59486;SDS011;45298;54.918;73.504;2023-03-14T05:47:33;8.20;;;3.80;;
59486;SDS011;45298;54.918;73.504;2023-03-14T05:50:32;9.20;;;3.80;;
59486;SDS011;45298;54.918;73.504;2023-03-14T05:53:14;7.38;;;3.88;;
59486;SDS011;45298;54.918;73.504;2023-03-14T05:55:55;7.43;;;3.50;;
59486;SDS011;45298;54.918;73.504;2023-03-14T05:58:47;8.35;;;3.90;;
59486;SDS011;45298;54.918;73.504;2023-03-14T06:01:24;9.48;;;4.07;;
59486;SDS011;45298;54.918;73.504;2023-03-14T06:04:05;7.55;;;3.75;;
59486;SDS011;45298;54.918;73.504;2023-03-14T06:06:34;10.93;;;3.95;;
59486;SDS011;45298;54.918;73.504;2023-03-14T06:09:03;7.65;;;3.63;;
59486;SDS011;45298;54.918;73.504;2023-03-14T06:11:35;11.60;;;3.90;;
59486;SDS011;45298;54.918;73.504;2023-03-14T06:14:05;7.10;;;3.60;;
59486;SDS011;45298;54.918;73.504;2023-03-14T06:16:35;7.90;;;3.70;;
59486;SDS011;45298;54.918;73.504;2023-03-14T06:19:04;7.30;;;3.78;;
59486;SDS011;45298;54.918;73.504;2023-03-14T06:21:33;8.88;;;4.10;;
59486;SDS011;45298;54.918;73.504;2023-03-14T06:24:02;8.48;;;4.43;;
59486;SDS011;45298;54.918;73.504;2023-03-14T06:26:39;9.75;;;4.18;;
59486;SDS011;45298;54.918;73.504;2023-03-14T06:29:08;9.57;;;4.07;;
59486;SDS011;45298;54.918;73.504;2023-03-14T06:31:38;16.00;;;4.40;;
59486;SDS011;45298;54.918;73.504;2023-03-14T06:34:07;11.25;;;4.03;;
59486;SDS011;45298;54.918;73.504;2023-03-14T06:36:36;7.32;;;3.80;;
59486;SDS011;45298;54.918;73.504;2023-03-14T06:39:04;7.50;;;3.67;;
59486;SDS011;45298;54.918;73.504;2023-03-14T06:41:36;8.38;;;4.20;;
59486;SDS011;45298;54.918;73.504;2023-03-14T06:44:05;9.88;;;4.15;;
59486;SDS011;45298;54.918;73.504;2023-03-14T06:46:34;7.20;;;4.00;;
59486;SDS011;45298;54.918;73.504;2023-03-14T06:49:03;8.30;;;4.30;;
59486;SDS011;45298;54.918;73.504;2023-03-14T06:51:32;8.98;;;4.55;;
59486;SDS011;45298;54.918;73.504;2023-03-14T06:54:06;9.57;;;4.00;;
59486;SDS011;45298;54.918;73.504;2023-03-14T06:56:35;8.27;;;4.03;;
59486;SDS011;45298;54.918;73.504;2023-03-14T06:59:04;12.75;;;3.97;;
59486;SDS011;45298;54.918;73.504;2023-03-14T07:01:33;9.88;;;4.20;;
59486;SDS011;45298;54.918;73.504;2023-03-14T07:04:09;9.15;;;3.80;;
59486;SDS011;45298;54.918;73.504;2023-03-14T07:06:43;8.50;;;4.38;;
59486;SDS011;45298;54.918;73.504;2023-03-14T07:09:15;9.20;;;3.90;;
59486;SDS011;45298;54.918;73.504;2023-03-14T07:11:52;6.90;;;3.85;;
59486;SDS011;45298;54.918;73.504;2023-03-14T07:14:22;10.18;;;4.00;;
59486;SDS011;45298;54.918;73.504;2023-03-14T07:16:51;8.27;;;4.10;;
59486;SDS011;45298;54.918;73.504;2023-03-14T07:19:20;8.07;;;4.25;;
59486;SDS011;45298;54.918;73.504;2023-03-14T07:21:48;10.98;;;4.22;;
59486;SDS011;45298;54.918;73.504;2023-03-14T07:24:22;6.28;;;3.80;;
59486;SDS011;45298;54.918;73.504;2023-03-14T07:26:50;7.13;;;4.20;;
59486;SDS011;45298;54.918;73.504;2023-03-14T07:29:20;9.27;;;4.03;;
59486;SDS011;45298;54.918;73.504;2023-03-14T07:31:49;7.90;;;3.83;;
59486;SDS011;45298;54.918;73.504;2023-03-14T07:34:19;8.20;;;3.85;;
59486;SDS011;45298;54.918;73.504;2023-03-14T07:36:48;6.40;;;3.80;;
59486;SDS011;45298;54.918;73.504;2023-03-14T07:39:17;6.82;;;3.70;;
59486;SDS011;45298;54.918;73.504;2023-03-14T07:42:08;7.32;;;3.67;;
59486;SDS011;45298;54.918;73.504;2023-03-14T07:44:54;7.47;;;3.78;;
59486;SDS011;45298;54.918;73.504;2023-03-14T07:47:22;7.22;;;3.55;;
59486;SDS011;45298;54.918;73.504;2023-03-14T07:49:51;11.43;;;3.92;;
59486;SDS011;45298;54.918;73.504;2023-03-14T07:52:20;8.00;;;3.70;;
59486;SDS011;45298;54.918;73.504;2023-03-14T07:54:48;8.77;;;3.78;;
59486;SDS011;45298;54.918;73.504;2023-03-14T07:57:17;5.88;;;3.15;;
59486;SDS011;45298;54.918;73.504;2023-03-14T07:59:46;8.27;;;3.55;;
59486;SDS011;45298;54.918;73.504;2023-03-14T08:02:14;7.05;;;3.28;;
59486;SDS011;45298;54.918;73.504;2023-03-14T08:04:43;8.60;;;3.83;;
59486;SDS011;45298;54.918;73.504;2023-03-14T08:07:12;7.30;;;3.80;;
59486;SDS011;45298;54.918;73.504;2023-03-14T08:09:40;10.40;;;3.70;;
59486;SDS011;45298;54.918;73.504;2023-03-14T08:12:09;6.88;;;3.40;;
59486;SDS011;45298;54.918;73.504;2023-03-14T08:14:38;6.65;;;3.70;;
59486;SDS011;45298;54.918;73.504;2023-03-14T08:17:06;7.97;;;3.50;;
59486;SDS011;45298;54.918;73.504;2023-03-14T08:19:36;7.80;;;3.83;;
59486;SDS011;45298;54.918;73.504;2023-03-14T08:22:04;5.93;;;3.30;;
59486;SDS011;45298;54.918;73.504;2023-03-14T08:24:33;8.80;;;4.40;;
59486;SDS011;45298;54.918;73.504;2023-03-14T08:27:03;10.85;;;4.35;;
59486;SDS011;45298;54.918;73.504;2023-03-14T08:29:34;9.13;;;3.40;;
59486;SDS011;45298;54.918;73.504;2023-03-14T08:32:03;6.93;;;3.90;;
59486;SDS011;45298;54.918;73.504;2023-03-14T08:34:32;7.53;;;4.05;;
59486;SDS011;45298;54.918;73.504;2023-03-14T08:37:01;7.63;;;3.50;;
59486;SDS011;45298;54.918;73.504;2023-03-14T08:39:37;8.82;;;4.32;;
59486;SDS011;45298;54.918;73.504;2023-03-14T08:42:06;6.88;;;3.60;;
59486;SDS011;45298;54.918;73.504;2023-03-14T08:44:35;6.03;;;3.40;;
59486;SDS011;45298;54.918;73.504;2023-03-14T08:47:03;8.10;;;3.90;;
59486;SDS011;45298;54.918;73.504;2023-03-14T08:49:32;9.23;;;4.35;;
59486;SDS011;45298;54.918;73.504;2023-03-14T08:52:02;9.55;;;4.00;;
59486;SDS011;45298;54.918;73.504;2023-03-14T08:54:32;7.55;;;3.63;;
59486;SDS011;45298;54.918;73.504;2023-03-14T08:57:01;6.38;;;3.30;;
59486;SDS011;45298;54.918;73.504;2023-03-14T08:59:29;7.43;;;3.63;;
59486;SDS011;45298;54.918;73.504;2023-03-14T09:01:58;7.57;;;3.15;;
59486;SDS011;45298;54.918;73.504;2023-03-14T09:04:27;6.18;;;3.28;;
59486;SDS011;45298;54.918;73.504;2023-03-14T09:06:56;6.20;;;3.17;;
59486;SDS011;45298;54.918;73.504;2023-03-14T09:09:28;9.13;;;4.63;;
59486;SDS011;45298;54.918;73.504;2023-03-14T09:11:58;7.68;;;3.20;;
59486;SDS011;45298;54.918;73.504;2023-03-14T09:14:27;6.63;;;3.00;;
59486;SDS011;45298;54.918;73.504;2023-03-14T09:16:56;5.93;;;3.20;;
59486;SDS011;45298;54.918;73.504;2023-03-14T09:19:26;9.57;;;4.07;;
59486;SDS011;45298;54.918;73.504;2023-03-14T09:21:55;7.50;;;3.60;;
59486;SDS011;45298;54.918;73.504;2023-03-14T09:24:26;7.32;;;3.78;;
59486;SDS011;45298;54.918;73.504;2023-03-14T09:26:57;8.95;;;3.20;;
59486;SDS011;45298;54.918;73.504;2023-03-14T09:29:26;10.45;;;3.72;;
59486;SDS011;45298;54.918;73.504;2023-03-14T09:31:56;7.88;;;3.60;;
59486;SDS011;45298;54.918;73.504;2023-03-14T09:34:27;8.48;;;3.30;;
59486;SDS011;45298;54.918;73.504;2023-03-14T09:36:56;8.77;;;3.80;;
59486;SDS011;45298;54.918;73.504;2023-03-14T09:39:25;10.68;;;4.90;;
59486;SDS011;45298;54.918;73.504;2023-03-14T09:41:56;9.48;;;4.63;;
59486;SDS011;45298;54.918;73.504;2023-03-14T09:44:37;7.20;;;3.20;;
59486;SDS011;45298;54.918;73.504;2023-03-14T09:47:19;8.43;;;3.38;;
59486;SDS011;45298;54.918;73.504;2023-03-14T09:49:48;10.90;;;4.10;;
59486;SDS011;45298;54.918;73.504;2023-03-14T09:52:19;8.70;;;3.03;;
59486;SDS011;45298;54.918;73.504;2023-03-14T09:55:03;9.68;;;3.47;;
59486;SDS011;45298;54.918;73.504;2023-03-14T09:57:38;7.00;;;3.30;;
59486;SDS011;45298;54.918;73.504;2023-03-14T10:00:17;7.75;;;3.60;;
59486;SDS011;45298;54.918;73.504;2023-03-14T10:02:53;12.05;;;4.72;;
59486;SDS011;45298;54.918;73.504;2023-03-14T10:05:42;10.10;;;2.85;;
59486;SDS011;45298;54.918;73.504;2023-03-14T10:08:12;10.10;;;3.58;;
59486;SDS011;45298;54.918;73.504;2023-03-14T10:10:41;9.25;;;3.30;;
59486;SDS011;45298;54.918;73.504;2023-03-14T10:13:22;8.68;;;3.50;;
59486;SDS011;45298;54.918;73.504;2023-03-14T10:15:55;9.88;;;3.63;;
59486;SDS011;45298;54.918;73.504;2023-03-14T10:18:33;10.82;;;4.22;;
59486;SDS011;45298;54.918;73.504;2023-03-14T10:21:07;7.38;;;2.90;;
59486;SDS011;45298;54.918;73.504;2023-03-14T10:24:07;13.27;;;4.13;;
59486;SDS011;45298;54.918;73.504;2023-03-14T10:26:53;6.32;;;2.75;;
59486;SDS011;45298;54.918;73.504;2023-03-14T10:29:26;6.55;;;2.97;;
59486;SDS011;45298;54.918;73.504;2023-03-14T10:32:00;10.32;;;3.28;;
59486;SDS011;45298;54.918;73.504;2023-03-14T10:34:32;9.05;;;3.25;;
59486;SDS011;45298;54.918;73.504;2023-03-14T10:37:23;8.35;;;3.72;;
59486;SDS011;45298;54.918;73.504;2023-03-14T10:39:57;7.55;;;2.72;;
59486;SDS011;45298;54.918;73.504;2023-03-14T10:42:40;7.63;;;3.22;;
59486;SDS011;45298;54.918;73.504;2023-03-14T10:45:25;10.40;;;3.30;;
59486;SDS011;45298;54.918;73.504;2023-03-14T10:48:06;11.70;;;3.50;;
59486;SDS011;45298;54.918;73.504;2023-03-14T10:51:02;11.25;;;3.50;;
59486;SDS011;45298;54.918;73.504;2023-03-14T10:53:44;9.38;;;3.10;;
59486;SDS011;45298;54.918;73.504;2023-03-14T10:56:18;7.07;;;3.10;;
59486;SDS011;45298;54.918;73.504;2023-03-14T10:58:50;6.90;;;3.73;;
59486;SDS011;45298;54.918;73.504;2023-03-14T11:04:15;8.82;;;3.80;;
59486;SDS011;45298;54.918;73.504;2023-03-14T11:13:23;9.50;;;3.60;;
59486;SDS011;45298;54.918;73.504;2023-03-14T11:21:39;9.63;;;4.43;;
59486;SDS011;45298;54.918;73.504;2023-03-14T11:27:16;10.98;;;5.00;;
59486;SDS011;45298;54.918;73.504;2023-03-14T11:32:46;10.27;;;4.90;;
59486;SDS011;45298;54.918;73.504;2023-03-14T11:35:46;14.82;;;6.13;;
59486;SDS011;45298;54.918;73.504;2023-03-14T11:41:17;8.35;;;3.85;;
59486;SDS011;45298;54.918;73.504;2023-03-14T11:46:25;10.85;;;4.85;;
59486;SDS011;45298;54.918;73.504;2023-03-14T11:51:48;10.20;;;4.97;;
59486;SDS011;45298;54.918;73.504;2023-03-14T11:54:33;14.98;;;5.28;;
59486;SDS011;45298;54.918;73.504;2023-03-14T11:57:14;14.25;;;5.90;;
59486;SDS011;45298;54.918;73.504;2023-03-14T12:10:51;11.88;;;5.85;;
59486;SDS011;45298;54.918;73.504;2023-03-14T12:13:45;19.33;;;7.90;;
59486;SDS011;45298;54.918;73.504;2023-03-14T12:18:53;14.70;;;6.65;;
59486;SDS011;45298;54.918;73.504;2023-03-14T12:21:23;10.65;;;4.75;;
59486;SDS011;45298;54.918;73.504;2023-03-14T12:24:17;11.50;;;4.50;;
59486;SDS011;45298;54.918;73.504;2023-03-14T12:27:00;13.88;;;6.15;;
59486;SDS011;45298;54.918;73.504;2023-03-14T12:29:31;9.32;;;4.53;;
59486;SDS011;45298;54.918;73.504;2023-03-14T12:34:34;10.10;;;4.60;;
59486;SDS011;45298;54.918;73.504;2023-03-14T12:40:17;9.35;;;4.28;;
59486;SDS011;45298;54.918;73.504;2023-03-14T12:42:59;9.15;;;4.60;;
59486;SDS011;45298;54.918;73.504;2023-03-14T12:45:33;12.80;;;5.20;;
59486;SDS011;45298;54.918;73.504;2023-03-14T12:50:56;20.00;;;8.40;;
59486;SDS011;45298;54.918;73.504;2023-03-14T12:53:48;11.02;;;5.32;;
59486;SDS011;45298;54.918;73.504;2023-03-14T12:59:16;6.07;;;3.70;;
59486;SDS011;45298;54.918;73.504;2023-03-14T13:02:01;7.03;;;3.80;;
59486;SDS011;45298;54.918;73.504;2023-03-14T13:04:51;14.45;;;6.13;;
59486;SDS011;45298;54.918;73.504;2023-03-14T13:07:32;8.82;;;4.50;;
59486;SDS011;45298;54.918;73.504;2023-03-14T13:21:27;9.55;;;4.13;;
59486;SDS011;45298;54.918;73.504;2023-03-14T13:24:07;8.75;;;4.38;;
59486;SDS011;45298;54.918;73.504;2023-03-14T13:26:52;9.10;;;4.13;;
59486;SDS011;45298;54.918;73.504;2023-03-14T13:29:24;8.00;;;4.23;;
59486;SDS011;45298;54.918;73.504;2023-03-14T13:32:00;9.55;;;5.15;;
59486;SDS011;45298;54.918;73.504;2023-03-14T13:34:49;25.13;;;9.88;;
59486;SDS011;45298;54.918;73.504;2023-03-14T13:37:22;15.68;;;6.30;;
59486;SDS011;45298;54.918;73.504;2023-03-14T13:39:53;7.85;;;4.30;;
59486;SDS011;45298;54.918;73.504;2023-03-14T13:42:27;8.85;;;4.13;;
59486;SDS011;45298;54.918;73.504;2023-03-14T13:44:57;12.53;;;5.77;;
59486;SDS011;45298;54.918;73.504;2023-03-14T13:47:26;12.35;;;4.85;;
59486;SDS011;45298;54.918;73.504;2023-03-14T13:49:56;12.75;;;5.97;;
59486;SDS011;45298;54.918;73.504;2023-03-14T13:52:31;15.07;;;6.10;;
59486;SDS011;45298;54.918;73.504;2023-03-14T13:55:05;12.60;;;5.15;;
59486;SDS011;45298;54.918;73.504;2023-03-14T13:57:45;13.45;;;6.30;;
59486;SDS011;45298;54.918;73.504;2023-03-14T14:00:26;11.25;;;5.22;;
59486;SDS011;45298;54.918;73.504;2023-03-14T14:02:57;21.83;;;8.27;;
59486;SDS011;45298;54.918;73.504;2023-03-14T14:05:28;10.60;;;5.40;;
59486;SDS011;45298;54.918;73.504;2023-03-14T14:08:00;12.40;;;5.70;;
59486;SDS011;45298;54.918;73.504;2023-03-14T14:10:32;11.75;;;5.38;;
59486;SDS011;45298;54.918;73.504;2023-03-14T14:13:02;25.67;;;9.55;;
59486;SDS011;45298;54.918;73.504;2023-03-14T14:15:35;19.15;;;8.48;;
59486;SDS011;45298;54.918;73.504;2023-03-14T14:18:10;13.73;;;6.65;;
59486;SDS011;45298;54.918;73.504;2023-03-14T14:20:45;14.02;;;6.38;;
59486;SDS011;45298;54.918;73.504;2023-03-14T14:23:20;14.38;;;5.72;;
59486;SDS011;45298;54.918;73.504;2023-03-14T14:25:57;18.10;;;7.05;;
59486;SDS011;45298;54.918;73.504;2023-03-14T14:28:31;15.88;;;6.32;;
59486;SDS011;45298;54.918;73.504;2023-03-14T14:31:16;19.08;;;7.50;;
59486;SDS011;45298;54.918;73.504;2023-03-14T14:33:59;20.50;;;7.78;;
59486;SDS011;45298;54.918;73.504;2023-03-14T14:36:31;17.48;;;7.72;;
59486;SDS011;45298;54.918;73.504;2023-03-14T14:39:03;16.95;;;7.45;;
59486;SDS011;45298;54.918;73.504;2023-03-14T14:41:39;18.60;;;7.82;;
59486;SDS011;45298;54.918;73.504;2023-03-14T14:44:10;23.60;;;9.35;;
59486;SDS011;45298;54.918;73.504;2023-03-14T14:46:41;19.73;;;7.63;;
59486;SDS011;45298;54.918;73.504;2023-03-14T14:49:13;17.98;;;8.45;;
59486;SDS011;45298;54.918;73.504;2023-03-14T14:51:44;16.38;;;6.65;;
59486;SDS011;45298;54.918;73.504;2023-03-14T14:54:17;18.52;;;8.02;;
59486;SDS011;45298;54.918;73.504;2023-03-14T14:56:51;15.75;;;6.93;;
59486;SDS011;45298;54.918;73.504;2023-03-14T14:59:25;23.63;;;8.00;;
59486;SDS011;45298;54.918;73.504;2023-03-14T15:04:51;19.40;;;7.45;;
59486;SDS011;45298;54.918;73.504;2023-03-14T15:07:21;19.48;;;7.53;;
59486;SDS011;45298;54.918;73.504;2023-03-14T15:09:50;23.30;;;7.63;;
59486;SDS011;45298;54.918;73.504;2023-03-14T15:12:19;20.52;;;6.43;;
59486;SDS011;45298;54.918;73.504;2023-03-14T15:14:49;17.50;;;7.28;;
59486;SDS011;45298;54.918;73.504;2023-03-14T15:17:19;14.43;;;5.68;;
59486;SDS011;45298;54.918;73.504;2023-03-14T15:19:47;14.13;;;5.35;;
59486;SDS011;45298;54.918;73.504;2023-03-14T15:22:17;14.18;;;5.60;;
59486;SDS011;45298;54.918;73.504;2023-03-14T15:24:46;14.85;;;5.70;;
59486;SDS011;45298;54.918;73.504;2023-03-14T15:27:16;12.63;;;5.45;;
59486;SDS011;45298;54.918;73.504;2023-03-14T15:29:47;13.38;;;4.75;;
59486;SDS011;45298;54.918;73.504;2023-03-14T15:32:16;31.05;;;11.07;;
59486;SDS011;45298;54.918;73.504;2023-03-14T15:34:46;16.58;;;6.63;;
59486;SDS011;45298;54.918;73.504;2023-03-14T15:37:15;19.05;;;7.35;;
59486;SDS011;45298;54.918;73.504;2023-03-14T15:39:45;8.90;;;4.55;;
59486;SDS011;45298;54.918;73.504;2023-03-14T15:42:15;21.02;;;7.10;;
59486;SDS011;45298;54.918;73.504;2023-03-14T15:44:44;16.35;;;5.90;;
59486;SDS011;45298;54.918;73.504;2023-03-14T15:47:13;11.95;;;4.20;;
59486;SDS011;45298;54.918;73.504;2023-03-14T15:49:42;17.65;;;7.15;;
59486;SDS011;45298;54.918;73.504;2023-03-14T15:52:12;31.90;;;10.45;;
59486;SDS011;45298;54.918;73.504;2023-03-14T15:54:40;20.77;;;8.55;;
59486;SDS011;45298;54.918;73.504;2023-03-14T15:57:10;15.80;;;6.00;;
59486;SDS011;45298;54.918;73.504;2023-03-14T15:59:39;13.88;;;5.32;;
59486;SDS011;45298;54.918;73.504;2023-03-14T16:02:09;21.40;;;8.38;;
59486;SDS011;45298;54.918;73.504;2023-03-14T16:04:38;12.77;;;5.72;;
59486;SDS011;45298;54.918;73.504;2023-03-14T16:07:07;14.85;;;6.00;;
59486;SDS011;45298;54.918;73.504;2023-03-14T16:09:36;13.52;;;5.40;;
59486;SDS011;45298;54.918;73.504;2023-03-14T16:12:05;15.85;;;6.15;;
59486;SDS011;45298;54.918;73.504;2023-03-14T16:14:36;13.32;;;5.07;;
59486;SDS011;45298;54.918;73.504;2023-03-14T16:17:09;15.27;;;5.78;;
59486;SDS011;45298;54.918;73.504;2023-03-14T16:19:39;25.40;;;9.15;;
59486;SDS011;45298;54.918;73.504;2023-03-14T16:22:08;13.35;;;4.93;;
59486;SDS011;45298;54.918;73.504;2023-03-14T16:24:38;21.83;;;8.50;;
59486;SDS011;45298;54.918;73.504;2023-03-14T16:27:07;20.00;;;7.95;;
59486;SDS011;45298;54.918;73.504;2023-03-14T16:29:36;19.55;;;7.43;;